Estacada, Oregon
Current Conditions -  °F | °C
As of 2:53 PM on Tuesday 25 Nov 2014 (Local Time) from KTTD Reporting Station
Overcast Overcast  
Wind Chill: 62°   Ceiling: 4700
Heat Index: 62°   Visibility: 10mi
Dew Point: 55°   Wind: 9mph
Humidity: 78%   Direction: 230°SW
Pressure: 30.29"   Gusts: NA
Location:  45.29°N, 122.33°W
Report Text: KTTD 252253Z 23008KT 10SM BKN047 OVC060 17/13 A3029 RMK AO2 SLP255 T01670128
Loading
Personal Weather Stations






























Interactive Weather Map New forecast layout! Learn more

10-Day Weather Forecast

Advertisements
Track Severe Weather on mobile